createdAt,value
2019-05-13T05:11:34.213Z,0.80
2019-05-13T05:21:34.922Z,1.35
2019-05-13T05:31:34.479Z,3.12
2019-05-13T05:41:34.731Z,2.43
2019-05-13T05:51:34.405Z,2.20
2019-05-13T06:01:37.225Z,3.08
2019-05-13T06:11:36.995Z,4.62
2019-05-13T06:21:34.192Z,5.30
2019-05-13T06:31:34.397Z,4.68
2019-05-13T06:41:34.537Z,5.49
2019-05-13T06:51:34.826Z,5.23
2019-05-13T07:01:34.483Z,5.27
2019-05-13T07:11:34.376Z,5.11
2019-05-13T07:21:34.431Z,4.67
2019-05-13T07:31:34.376Z,4.93
2019-05-13T07:41:39.289Z,4.80
2019-05-13T07:51:34.918Z,4.21
2019-05-13T08:01:34.252Z,4.70
2019-05-13T08:11:40.154Z,6.29
2019-05-13T08:21:34.910Z,5.55
2019-05-13T08:31:35.048Z,5.65
2019-05-13T08:41:34.890Z,5.61
2019-05-13T08:51:34.866Z,3.10
2019-05-13T09:01:36.744Z,5.66
2019-05-13T09:11:34.889Z,6.01
2019-05-13T09:21:34.931Z,5.04
2019-05-13T09:31:35.098Z,4.25
2019-05-13T09:41:40.886Z,3.72
2019-05-13T09:51:35.270Z,5.34
2019-05-13T10:01:35.026Z,7.32
2019-05-13T10:11:34.964Z,7.68
2019-05-13T10:21:34.642Z,6.84
2019-05-13T10:31:34.814Z,6.36
2019-05-13T10:41:35.204Z,4.54
2019-05-13T10:51:34.239Z,5.66
2019-05-13T11:01:34.699Z,7.56
2019-05-13T11:11:34.878Z,6.77
2019-05-13T11:21:34.850Z,4.87
2019-05-13T11:31:35.142Z,5.75
2019-05-13T11:41:34.818Z,9.42
2019-05-13T11:51:34.960Z,8.84
2019-05-13T12:01:34.434Z,8.43
2019-05-13T12:11:34.598Z,7.59
2019-05-13T12:21:41.695Z,9.73
2019-05-13T12:31:34.842Z,7.83
2019-05-13T12:41:34.901Z,8.01
2019-05-13T12:51:35.073Z,6.88
2019-05-13T13:01:35.048Z,7.85
2019-05-13T13:11:35.068Z,8.34
2019-05-13T13:21:37.710Z,7.65
2019-05-13T13:31:34.956Z,6.80
2019-05-13T13:41:34.939Z,10.24
2019-05-13T13:51:34.696Z,8.30
2019-05-13T14:01:34.960Z,7.88
2019-05-13T14:11:34.836Z,7.38
2019-05-13T14:21:34.914Z,8.67
2019-05-13T14:31:34.867Z,6.98
2019-05-13T14:41:33.896Z,8.33
2019-05-13T14:51:34.079Z,7.22
2019-05-13T15:01:34.163Z,10.22
2019-05-13T15:11:34.125Z,9.20
2019-05-13T15:21:34.426Z,7.79
2019-05-13T15:31:34.168Z,7.95
2019-05-13T15:41:34.027Z,9.67
2019-05-13T15:51:34.708Z,9.83
2019-05-13T16:01:34.054Z,10.89
2019-05-13T16:11:34.237Z,9.99
2019-05-13T16:21:34.082Z,10.68
2019-05-13T16:31:34.691Z,10.54
2019-05-13T16:41:34.488Z,9.88
2019-05-13T16:51:34.615Z,10.71
2019-05-13T17:01:34.702Z,9.62
2019-05-13T17:11:34.561Z,9.12
2019-05-13T17:21:36.081Z,10.03
2019-05-13T17:31:34.398Z,9.13
2019-05-13T17:41:34.344Z,8.99
2019-05-13T17:51:34.630Z,10.26
2019-05-13T18:01:34.494Z,8.86
2019-05-13T18:11:34.470Z,9.22
2019-05-13T18:21:35.262Z,8.05
2019-05-13T18:31:34.701Z,7.86
2019-05-13T18:41:34.443Z,6.34
2019-05-13T18:51:34.335Z,6.58
2019-05-13T19:01:34.398Z,6.35
